Time;durP1;ratioP1;P1;durP2;ratioP2;P2;SDS_P1;SDS_P2;PMS_P1;PMS_P2;Temp;Humidity;BMP_temperature;BMP_pressure;BME280_temperature;BME280_humidity;BME280_pressure;Samples;Min_cycle;Max_cycle;Signal;HPM_P1;HPM_P2
2022/06/24 00:00:55;;;;;;;10.05;6.45;;;;;;;;;;6287126;28;20124;-66
2022/06/24 00:03:56;;;;;;;12.13;7.00;;;;;;;;;;6290381;28;20044;-62
2022/06/24 00:06:57;;;;;;;8.68;6.40;;;;;;;;;;6287222;28;20128;-61
2022/06/24 00:09:58;;;;;;;8.98;6.60;;;;;;;;;;6284449;28;20049;-62
2022/06/24 00:12:59;;;;;;;10.40;6.28;;;;;;;;;;6287054;28;20037;-62
2022/06/24 00:16:02;;;;;;;9.30;6.35;;;;;;;;;;6283316;28;20518;-62
2022/06/24 00:19:10;;;;;;;11.68;6.82;;;;;;;;;;6284820;28;20036;-61
2022/06/24 00:22:12;;;;;;;10.27;6.50;;;;;;;;;;6286747;28;20516;-62
2022/06/24 00:25:21;;;;;;;10.18;7.18;;;;;;;;;;6281287;28;20044;-62
2022/06/24 00:28:25;;;;;;;9.57;6.80;;;;;;;;;;6285126;28;20071;-61
2022/06/24 00:31:26;;;;;;;10.73;6.93;;;;;;;;;;6282292;28;20160;-61
2022/06/24 00:34:27;;;;;;;9.23;6.85;;;;;;;;;;6285978;28;20037;-61
2022/06/24 00:37:30;;;;;;;10.38;6.90;;;;;;;;;;6279003;28;20564;-62
2022/06/24 00:40:34;;;;;;;9.57;6.60;;;;;;;;;;6285771;28;20082;-62
2022/06/24 00:43:39;;;;;;;9.30;6.40;;;;;;;;;;6289449;28;20039;-61
2022/06/24 00:46:43;;;;;;;15.90;7.07;;;;;;;;;;6289580;28;20090;-61
2022/06/24 00:49:47;;;;;;;11.43;6.90;;;;;;;;;;6287529;28;20453;-62
2022/06/24 00:52:49;;;;;;;12.02;6.90;;;;;;;;;;6281633;28;20182;-62
2022/06/24 00:55:49;;;;;;;12.82;7.40;;;;;;;;;;6282743;28;20045;-62
2022/06/24 00:59:01;;;;;;;15.00;7.28;;;;;;;;;;6285091;28;20140;-62
2022/06/24 01:02:06;;;;;;;12.15;6.90;;;;;;;;;;6283056;28;20040;-61
2022/06/24 01:05:09;;;;;;;11.85;7.30;;;;;;;;;;6282616;28;20136;-61
2022/06/24 01:08:11;;;;;;;9.85;6.63;;;;;;;;;;6280388;28;20033;-61
2022/06/24 01:11:12;;;;;;;12.10;7.03;;;;;;;;;;6276934;28;20044;-62
2022/06/24 01:14:13;;;;;;;13.43;7.10;;;;;;;;;;6285261;28;20128;-62
2022/06/24 01:17:14;;;;;;;9.95;6.72;;;;;;;;;;6287163;28;20946;-61
2022/06/24 01:20:14;;;;;;;10.75;6.88;;;;;;;;;;6280817;28;20040;-61
2022/06/24 01:23:23;;;;;;;11.85;6.90;;;;;;;;;;6285084;28;20448;-62
2022/06/24 01:26:23;;;;;;;10.50;6.90;;;;;;;;;;6286880;28;20589;-62
2022/06/24 01:29:25;;;;;;;12.55;7.65;;;;;;;;;;6281117;28;20477;-61
2022/06/24 01:32:26;;;;;;;;;;;;;;;;;;6284332;28;20040;-62
2022/06/24 01:35:27;;;;;;;12.48;7.05;;;;;;;;;;6283453;28;19935;-61
2022/06/24 01:38:27;;;;;;;10.55;6.85;;;;;;;;;;6283138;28;20144;-62
2022/06/24 01:41:28;;;;;;;10.65;6.57;;;;;;;;;;6287977;28;20093;-62
2022/06/24 01:44:29;;;;;;;10.27;6.70;;;;;;;;;;6286396;28;20552;-62
2022/06/24 01:47:29;;;;;;;9.95;7.28;;;;;;;;;;6282326;28;20041;-62
2022/06/24 01:50:30;;;;;;;11.00;6.78;;;;;;;;;;6284232;28;20965;-61
2022/06/24 01:53:31;;;;;;;14.48;6.95;;;;;;;;;;6286417;28;20056;-61
2022/06/24 01:56:31;;;;;;;11.10;6.88;;;;;;;;;;6287137;28;20569;-61
2022/06/24 01:59:32;;;;;;;9.77;6.35;;;;;;;;;;6286019;28;20497;-62
2022/06/24 02:02:33;;;;;;;12.63;6.82;;;;;;;;;;6285536;28;20055;-61
2022/06/24 02:05:34;;;;;;;10.90;7.18;;;;;;;;;;6286970;28;20079;-62
2022/06/24 02:08:35;;;;;;;10.23;7.30;;;;;;;;;;6291964;28;20044;-62
2022/06/24 02:14:56;;;;;;;10.25;6.80;;;;;;;;;;6291169;28;20045;-62
2022/06/24 02:17:56;;;;;;;10.73;6.57;;;;;;;;;;6289520;28;20044;-61
2022/06/24 02:20:58;;;;;;;12.98;7.60;;;;;;;;;;6284601;28;20067;-61
2022/06/24 02:23:59;;;;;;;10.55;7.25;;;;;;;;;;6289344;28;20531;-61
2022/06/24 02:26:59;;;;;;;12.65;7.22;;;;;;;;;;6289301;28;20051;-61
2022/06/24 02:30:00;;;;;;;11.70;7.20;;;;;;;;;;6290897;28;20547;-61
2022/06/24 02:33:00;;;;;;;11.02;6.97;;;;;;;;;;6289517;28;20105;-61
2022/06/24 02:36:02;;;;;;;10.90;7.53;;;;;;;;;;6279146;28;20140;-61
2022/06/24 02:39:03;;;;;;;9.88;6.70;;;;;;;;;;6287276;28;20134;-60
2022/06/24 02:42:04;;;;;;;11.65;7.75;;;;;;;;;;6288023;28;20070;-61
2022/06/24 02:45:05;;;;;;;12.27;7.00;;;;;;;;;;6286141;28;20624;-61
2022/06/24 02:48:06;;;;;;;12.18;6.82;;;;;;;;;;6287642;28;20072;-61
2022/06/24 02:51:09;;;;;;;11.52;7.18;;;;;;;;;;6290998;28;20815;-61
2022/06/24 02:54:10;;;;;;;11.00;7.22;;;;;;;;;;6287396;28;20586;-61
2022/06/24 02:57:11;;;;;;;10.25;7.10;;;;;;;;;;6286569;28;20100;-61
2022/06/24 03:00:12;;;;;;;10.50;6.70;;;;;;;;;;6272838;28;20194;-61
2022/06/24 03:03:14;;;;;;;12.60;7.38;;;;;;;;;;6289835;28;20068;-61
2022/06/24 03:06:15;;;;;;;13.52;7.53;;;;;;;;;;6289069;28;20177;-61
2022/06/24 03:09:15;;;;;;;12.75;7.15;;;;;;;;;;6290652;28;20466;-62
2022/06/24 03:12:16;;;;;;;11.23;7.35;;;;;;;;;;6292333;28;20093;-59
2022/06/24 03:15:17;;;;;;;14.15;7.68;;;;;;;;;;6287814;28;20135;-61
2022/06/24 03:18:18;;;;;;;11.52;7.05;;;;;;;;;;6291099;28;20048;-62
2022/06/24 03:21:18;;;;;;;11.48;7.50;;;;;;;;;;6281789;28;20127;-62
2022/06/24 03:24:19;;;;;;;11.98;7.70;;;;;;;;;;6290971;28;20094;-62
2022/06/24 03:27:19;;;;;;;11.18;7.45;;;;;;;;;;6289503;28;20257;-62
2022/06/24 03:30:20;;;;;;;12.27;8.00;;;;;;;;;;6291724;28;20079;-61
2022/06/24 03:33:21;;;;;;;10.18;6.88;;;;;;;;;;6289102;28;20071;-61
2022/06/24 03:36:22;;;;;;;12.40;7.97;;;;;;;;;;6289528;28;20139;-61
2022/06/24 03:39:23;;;;;;;12.50;7.70;;;;;;;;;;6288939;28;20048;-62
2022/06/24 03:42:24;;;;;;;14.45;7.53;;;;;;;;;;6300464;28;20135;-61
2022/06/24 03:45:24;;;;;;;14.95;7.68;;;;;;;;;;6303259;28;20044;-61
2022/06/24 03:48:25;;;;;;;11.30;7.40;;;;;;;;;;6306986;28;20040;-61
2022/06/24 03:51:25;;;;;;;11.73;7.97;;;;;;;;;;6305351;28;20143;-61
2022/06/24 03:54:26;;;;;;;13.55;8.02;;;;;;;;;;6288909;28;20045;-62
2022/06/24 03:57:26;;;;;;;13.95;7.22;;;;;;;;;;6290815;28;20135;-60
2022/06/24 04:00:27;;;;;;;13.38;7.55;;;;;;;;;;6294003;28;20406;-61
2022/06/24 04:03:28;;;;;;;11.55;7.50;;;;;;;;;;6285347;28;20152;-61
2022/06/24 04:06:29;;;;;;;12.10;7.03;;;;;;;;;;6291666;28;20049;-60
2022/06/24 04:09:30;;;;;;;12.88;6.93;;;;;;;;;;6288815;28;20472;-62
2022/06/24 04:12:30;;;;;;;10.15;6.50;;;;;;;;;;6275381;28;20594;-61
2022/06/24 04:15:31;;;;;;;11.43;6.50;;;;;;;;;;6286362;28;20138;-61
2022/06/24 04:18:32;;;;;;;10.98;6.50;;;;;;;;;;6282320;28;20056;-61
2022/06/24 04:21:32;;;;;;;13.52;6.35;;;;;;;;;;6284468;28;20506;-62
2022/06/24 04:24:33;;;;;;;11.32;5.72;;;;;;;;;;6280180;28;20826;-61
2022/06/24 04:27:34;;;;;;;9.90;6.07;;;;;;;;;;6287064;28;20044;-62
2022/06/24 04:30:35;;;;;;;9.77;5.80;;;;;;;;;;6292431;28;20055;-62
2022/06/24 04:33:35;;;;;;;10.07;6.30;;;;;;;;;;6302359;28;20044;-62
2022/06/24 04:36:37;;;;;;;13.27;6.80;;;;;;;;;;6288150;28;20047;-61
2022/06/24 04:39:37;;;;;;;12.77;6.60;;;;;;;;;;6281009;28;20040;-62
2022/06/24 04:42:39;;;;;;;10.68;6.40;;;;;;;;;;6286203;28;20106;-62
2022/06/24 04:45:39;;;;;;;11.98;6.45;;;;;;;;;;6281273;28;20139;-62
2022/06/24 04:48:40;;;;;;;10.20;5.85;;;;;;;;;;6279420;28;20040;-62
2022/06/24 04:51:41;;;;;;;12.00;6.07;;;;;;;;;;6282058;28;20072;-62
2022/06/24 04:54:42;;;;;;;17.70;5.77;;;;;;;;;;6283968;28;20162;-62
2022/06/24 04:57:42;;;;;;;12.27;6.20;;;;;;;;;;6284231;28;20044;-62
2022/06/24 05:00:43;;;;;;;13.73;6.22;;;;;;;;;;6286828;28;20047;-61
2022/06/24 05:03:44;;;;;;;11.73;6.53;;;;;;;;;;6299328;28;20058;-61
2022/06/24 05:06:44;;;;;;;9.20;5.77;;;;;;;;;;6288547;28;20048;-62
2022/06/24 05:09:46;;;;;;;10.33;5.70;;;;;;;;;;6286308;28;20040;-62
2022/06/24 05:12:48;;;;;;;11.00;6.13;;;;;;;;;;6278980;28;20175;-61
2022/06/24 05:15:48;;;;;;;10.83;5.87;;;;;;;;;;6285391;28;20040;-61
2022/06/24 05:18:49;;;;;;;13.50;5.85;;;;;;;;;;6278149;28;20407;-63
2022/06/24 05:21:50;;;;;;;12.70;5.70;;;;;;;;;;6282651;28;20147;-63
2022/06/24 05:24:50;;;;;;;11.63;6.10;;;;;;;;;;6285068;28;20109;-62
2022/06/24 05:27:51;;;;;;;8.87;5.93;;;;;;;;;;6279578;28;20132;-63
2022/06/24 05:30:57;;;;;;;11.47;5.57;;;;;;;;;;6285069;28;20570;-62
2022/06/24 05:33:58;;;;;;;10.95;5.32;;;;;;;;;;6282709;28;20085;-62
2022/06/24 05:36:59;;;;;;;8.53;5.33;;;;;;;;;;6293475;28;20554;-61
2022/06/24 05:39:59;;;;;;;10.20;4.93;;;;;;;;;;6296288;28;20160;-62
2022/06/24 05:43:00;;;;;;;9.37;5.03;;;;;;;;;;6303394;28;20040;-62
2022/06/24 05:46:00;;;;;;;9.67;5.33;;;;;;;;;;6295685;28;20112;-62
2022/06/24 05:49:01;;;;;;;7.83;4.77;;;;;;;;;;6286066;28;20442;-62
2022/06/24 05:52:02;;;;;;;7.43;4.80;;;;;;;;;;6282890;28;20594;-62
2022/06/24 05:55:03;;;;;;;6.67;4.23;;;;;;;;;;6284463;28;20053;-62
2022/06/24 05:58:04;;;;;;;11.10;4.70;;;;;;;;;;6279398;28;20053;-62
2022/06/24 06:01:11;;;;;;;7.07;3.80;;;;;;;;;;6278159;28;20086;-62
2022/06/24 06:04:11;;;;;;;8.10;4.45;;;;;;;;;;6286161;28;20045;-62
2022/06/24 06:07:12;;;;;;;8.00;4.30;;;;;;;;;;6284698;28;20147;-62
2022/06/24 06:10:12;;;;;;;7.07;4.40;;;;;;;;;;6288243;28;20491;-62
2022/06/24 06:13:14;;;;;;;11.48;4.75;;;;;;;;;;6279009;28;20144;-61
2022/06/24 06:16:15;;;;;;;5.53;4.03;;;;;;;;;;6283525;28;20040;-62
2022/06/24 06:19:16;;;;;;;10.40;4.57;;;;;;;;;;6283038;28;20044;-62
2022/06/24 06:22:16;;;;;;;9.53;4.27;;;;;;;;;;6288955;28;20127;-63
2022/06/24 06:25:17;;;;;;;8.40;4.07;;;;;;;;;;6296546;28;20495;-62
2022/06/24 06:28:17;;;;;;;10.13;4.30;;;;;;;;;;6287791;28;20092;-62
2022/06/24 06:31:18;;;;;;;8.57;4.60;;;;;;;;;;6290710;28;20132;-62
2022/06/24 06:34:20;;;;;;;9.63;4.07;;;;;;;;;;6284381;28;20500;-62
2022/06/24 06:37:20;;;;;;;10.13;4.18;;;;;;;;;;6285414;28;20897;-62
2022/06/24 06:40:21;;;;;;;9.53;4.40;;;;;;;;;;6288608;28;20131;-62
2022/06/24 06:43:21;;;;;;;8.97;4.60;;;;;;;;;;6285451;28;20053;-62
2022/06/24 06:46:22;;;;;;;7.50;4.03;;;;;;;;;;6284588;28;20097;-60
2022/06/24 06:49:22;;;;;;;5.77;4.20;;;;;;;;;;6277347;28;20521;-63
2022/06/24 06:52:23;;;;;;;8.17;4.50;;;;;;;;;;6282165;28;20043;-62
2022/06/24 06:55:24;;;;;;;8.47;4.27;;;;;;;;;;6285303;28;20139;-63
2022/06/24 06:58:24;;;;;;;8.63;4.00;;;;;;;;;;6279077;28;20056;-63
2022/06/24 07:01:25;;;;;;;7.33;3.83;;;;;;;;;;6286373;28;20053;-63
2022/06/24 07:04:25;;;;;;;11.83;4.40;;;;;;;;;;6290766;28;20082;-63
2022/06/24 07:07:26;;;;;;;6.93;4.43;;;;;;;;;;6290262;28;20057;-63
2022/06/24 07:10:27;;;;;;;7.83;4.30;;;;;;;;;;6289125;28;20717;-60
2022/06/24 07:13:27;;;;;;;8.83;4.33;;;;;;;;;;6285475;28;20047;-63
2022/06/24 07:16:28;;;;;;;7.47;3.90;;;;;;;;;;6283844;28;20059;-63
2022/06/24 07:19:28;;;;;;;8.33;3.80;;;;;;;;;;6288456;28;20047;-63
2022/06/24 07:22:29;;;;;;;6.73;3.73;;;;;;;;;;6282321;28;20045;-63
2022/06/24 07:25:31;;;;;;;6.63;4.00;;;;;;;;;;6289216;28;20410;-63
2022/06/24 07:28:33;;;;;;;5.20;3.25;;;;;;;;;;6284817;28;20181;-62
2022/06/24 07:31:35;;;;;;;8.50;3.67;;;;;;;;;;6285351;28;20068;-63
2022/06/24 07:34:35;;;;;;;5.75;3.70;;;;;;;;;;6287520;28;20049;-61
2022/06/24 07:37:36;;;;;;;5.70;3.53;;;;;;;;;;6283835;28;20041;-63
2022/06/24 07:40:37;;;;;;;5.50;3.53;;;;;;;;;;6306904;28;20178;-64
2022/06/24 07:43:37;;;;;;;8.73;3.87;;;;;;;;;;6285840;28;20040;-62
2022/06/24 07:46:38;;;;;;;11.40;4.20;;;;;;;;;;6286820;28;20123;-63
2022/06/24 07:49:38;;;;;;;4.93;3.20;;;;;;;;;;6301451;28;20044;-63
2022/06/24 07:52:39;;;;;;;15.47;4.00;;;;;;;;;;6296079;28;20045;-62
2022/06/24 07:58:59;;;;;;;6.55;3.25;;;;;;;;;;6305305;28;20058;-63
2022/06/24 08:02:04;;;;;;;5.53;3.23;;;;;;;;;;6281252;28;20045;-63
2022/06/24 08:05:05;;;;;;;5.40;3.20;;;;;;;;;;6288687;28;20143;-63
2022/06/24 08:08:06;;;;;;;6.90;3.13;;;;;;;;;;6285793;28;20159;-61
2022/06/24 08:11:07;;;;;;;6.30;3.30;;;;;;;;;;6286280;28;20180;-65
2022/06/24 08:14:07;;;;;;;7.43;3.10;;;;;;;;;;6285815;28;20476;-64
2022/06/24 08:17:08;;;;;;;6.60;3.23;;;;;;;;;;6286272;28;20036;-63
2022/06/24 08:20:09;;;;;;;6.87;3.23;;;;;;;;;;6289409;28;20068;-62
2022/06/24 08:23:10;;;;;;;5.40;3.33;;;;;;;;;;6308870;28;20040;-63
2022/06/24 08:26:11;;;;;;;5.15;3.00;;;;;;;;;;6294883;28;20474;-63
2022/06/24 08:29:11;;;;;;;8.83;3.77;;;;;;;;;;6307542;28;20132;-62
2022/06/24 08:32:12;;;;;;;5.10;3.47;;;;;;;;;;6301247;28;20142;-61
2022/06/24 08:35:12;;;;;;;6.17;3.50;;;;;;;;;;6314260;28;20140;-63
2022/06/24 08:38:15;;;;;;;5.53;3.27;;;;;;;;;;6308531;28;20663;-62
2022/06/24 08:41:20;;;;;;;4.90;3.60;;;;;;;;;;6297017;28;20426;-62
2022/06/24 08:44:22;;;;;;;6.80;3.47;;;;;;;;;;6303914;28;20048;-63
2022/06/24 08:47:23;;;;;;;6.53;3.00;;;;;;;;;;6303562;28;20079;-63
2022/06/24 08:50:25;;;;;;;8.57;3.27;;;;;;;;;;6312933;28;20074;-63
2022/06/24 08:53:29;;;;;;;4.60;3.30;;;;;;;;;;6302094;28;20083;-63
2022/06/24 08:56:30;;;;;;;5.45;3.10;;;;;;;;;;6302260;28;20044;-63
2022/06/24 08:59:30;;;;;;;6.90;3.40;;;;;;;;;;6307619;28;20573;-64
2022/06/24 09:02:31;;;;;;;6.10;3.87;;;;;;;;;;6305137;28;20518;-63
2022/06/24 09:05:32;;;;;;;5.97;3.40;;;;;;;;;;6296072;28;20305;-62
2022/06/24 09:08:33;;;;;;;;;;;;;;;;;;6299270;28;20097;-63
2022/06/24 09:11:39;;;;;;;7.37;3.70;;;;;;;;;;6306780;28;20302;-63
2022/06/24 09:14:45;;;;;;;7.53;3.72;;;;;;;;;;6309048;28;20411;-64
2022/06/24 09:17:46;;;;;;;7.00;4.15;;;;;;;;;;6285476;28;20059;-62
2022/06/24 09:20:49;;;;;;;7.90;4.20;;;;;;;;;;6284637;28;20080;-63
2022/06/24 09:23:52;;;;;;;8.82;3.72;;;;;;;;;;6278915;28;20063;-63
2022/06/24 09:27:00;;;;;;;7.22;4.10;;;;;;;;;;6288033;28;20048;-63
2022/06/24 09:30:01;;;;;;;5.88;3.75;;;;;;;;;;6283878;28;20135;-63
2022/06/24 09:33:02;;;;;;;;;;;;;;;;;;6286708;28;20063;-62
2022/06/24 09:36:05;;;;;;;7.63;3.83;;;;;;;;;;6269553;28;20378;-63
2022/06/24 09:39:08;;;;;;;6.68;4.25;;;;;;;;;;6254166;28;20053;-63
2022/06/24 09:42:19;;;;;;;6.88;4.20;;;;;;;;;;6261185;28;20577;-63
2022/06/24 09:45:20;;;;;;;8.83;3.77;;;;;;;;;;6266240;28;20080;-62
2022/06/24 09:48:28;;;;;;;6.43;3.63;;;;;;;;;;6261400;28;21089;-62
2022/06/24 09:51:29;;;;;;;6.45;3.58;;;;;;;;;;6265844;28;20167;-63
2022/06/24 09:54:31;;;;;;;6.65;4.30;;;;;;;;;;6259444;28;20056;-62
2022/06/24 09:57:32;;;;;;;7.28;3.53;;;;;;;;;;6262333;28;20077;-62
2022/06/24 10:00:42;;;;;;;5.20;3.97;;;;;;;;;;6260034;28;20055;-67
2022/06/24 10:03:51;;;;;;;12.07;3.57;;;;;;;;;;6261481;28;20057;-63
2022/06/24 10:06:52;;;;;;;4.80;3.42;;;;;;;;;;6259503;28;20061;-63
2022/06/24 10:09:54;;;;;;;7.95;4.05;;;;;;;;;;6265711;28;20040;-63
2022/06/24 10:13:03;;;;;;;6.45;3.72;;;;;;;;;;6263436;28;20482;-61
2022/06/24 10:16:07;;;;;;;4.90;3.67;;;;;;;;;;6264138;28;20074;-64
2022/06/24 10:19:09;;;;;;;4.70;3.92;;;;;;;;;;6260509;28;20543;-65
2022/06/24 10:22:34;;;;;;;6.30;3.63;;;;;;;;;;6263476;28;20593;-65
2022/06/24 10:25:47;;;;;;;9.68;3.58;;;;;;;;;;6263104;28;20175;-64
2022/06/24 10:29:00;;;;;;;5.85;3.88;;;;;;;;;;6262478;28;20159;-64
2022/06/24 10:32:03;;;;;;;7.20;3.83;;;;;;;;;;6269812;28;20056;-64
2022/06/24 10:35:05;;;;;;;10.30;4.05;;;;;;;;;;6267120;28;20601;-64
2022/06/24 10:38:06;;;;;;;7.25;4.13;;;;;;;;;;6264464;28;20441;-64
2022/06/24 10:41:10;;;;;;;6.32;4.00;;;;;;;;;;6264222;28;20222;-63
2022/06/24 10:44:29;;;;;;;7.15;4.00;;;;;;;;;;6268283;28;20049;-63
2022/06/24 10:47:35;;;;;;;5.90;3.72;;;;;;;;;;6268473;28;20048;-63
2022/06/24 10:50:36;;;;;;;7.07;4.50;;;;;;;;;;6277721;28;20052;-64
2022/06/24 10:54:01;;;;;;;5.50;3.70;;;;;;;;;;6271979;28;21495;-63
2022/06/24 10:57:03;;;;;;;6.18;4.18;;;;;;;;;;6265257;28;20310;-65
2022/06/24 11:00:15;;;;;;;7.15;3.92;;;;;;;;;;6270919;28;20079;-63
2022/06/24 11:03:20;;;;;;;11.70;4.93;;;;;;;;;;6270522;28;20056;-64
2022/06/24 11:06:20;;;;;;;7.25;3.80;;;;;;;;;;6272566;28;20072;-62
2022/06/24 11:09:21;;;;;;;6.23;3.93;;;;;;;;;;6267637;28;20048;-63
2022/06/24 11:12:30;;;;;;;5.73;3.80;;;;;;;;;;6270056;28;20798;-63
2022/06/24 11:15:54;;;;;;;5.45;3.78;;;;;;;;;;6266669;28;20305;-64
2022/06/24 11:18:56;;;;;;;5.60;3.90;;;;;;;;;;6269733;28;20079;-62
2022/06/24 11:21:57;;;;;;;5.65;3.90;;;;;;;;;;6268750;28;20094;-62
2022/06/24 11:25:00;;;;;;;6.28;3.95;;;;;;;;;;6272469;28;20033;-63
2022/06/24 11:28:02;;;;;;;5.38;3.90;;;;;;;;;;6270511;28;20056;-62
2022/06/24 11:31:16;;;;;;;6.28;3.72;;;;;;;;;;6271327;28;20071;-64
2022/06/24 11:34:17;;;;;;;8.25;4.30;;;;;;;;;;6266716;28;20067;-62
2022/06/24 11:37:23;;;;;;;5.00;3.70;;;;;;;;;;6268614;28;20866;-63
2022/06/24 11:40:26;;;;;;;4.93;3.90;;;;;;;;;;6270474;28;20048;-63
2022/06/24 11:43:27;;;;;;;7.85;3.83;;;;;;;;;;6269612;28;20071;-63
2022/06/24 11:46:28;;;;;;;5.00;3.40;;;;;;;;;;6264559;28;20628;-63
2022/06/24 11:49:31;;;;;;;5.22;3.90;;;;;;;;;;6267572;28;20036;-64
2022/06/24 11:52:48;;;;;;;5.53;3.53;;;;;;;;;;6268285;28;20480;-63
2022/06/24 11:55:50;;;;;;;7.15;3.92;;;;;;;;;;6271098;28;20183;-62
2022/06/24 11:58:51;;;;;;;5.65;3.67;;;;;;;;;;6267085;28;20064;-62
2022/06/24 12:01:52;;;;;;;5.18;3.78;;;;;;;;;;6271582;28;20064;-63
2022/06/24 12:04:53;;;;;;;5.88;3.65;;;;;;;;;;6271458;28;20494;-63
2022/06/24 12:07:55;;;;;;;5.68;3.65;;;;;;;;;;6266569;28;20036;-63
2022/06/24 12:10:55;;;;;;;5.18;3.60;;;;;;;;;;6271956;28;20403;-63
2022/06/24 12:13:58;;;;;;;6.03;3.58;;;;;;;;;;6272103;28;20064;-62
2022/06/24 12:17:06;;;;;;;6.68;3.45;;;;;;;;;;6264540;28;21483;-61
2022/06/24 12:20:07;;;;;;;5.30;3.75;;;;;;;;;;6269678;28;20143;-64
2022/06/24 12:23:18;;;;;;;6.82;3.40;;;;;;;;;;6265959;28;20047;-64
2022/06/24 12:26:25;;;;;;;7.13;3.47;;;;;;;;;;6269199;28;20153;-64
2022/06/24 12:29:29;;;;;;;6.35;3.60;;;;;;;;;;6267158;28;20139;-63
2022/06/24 12:33:07;;;;;;;5.72;3.70;;;;;;;;;;6267995;28;20481;-63
2022/06/24 12:36:12;;;;;;;7.18;4.50;;;;;;;;;;6267694;28;20071;-64
2022/06/24 12:39:13;;;;;;;5.78;3.92;;;;;;;;;;6269179;28;20102;-64
2022/06/24 12:42:17;;;;;;;5.67;3.73;;;;;;;;;;6268612;28;20052;-64
2022/06/24 12:45:25;;;;;;;5.53;3.83;;;;;;;;;;6266254;28;20049;-62
2022/06/24 12:51:47;;;;;;;5.78;4.15;;;;;;;;;;6269524;28;20059;-64
2022/06/24 12:54:47;;;;;;;7.32;4.10;;;;;;;;;;6268240;28;20087;-63
2022/06/24 12:57:48;;;;;;;5.88;3.97;;;;;;;;;;6263905;28;20056;-63
2022/06/24 13:00:49;;;;;;;5.70;4.20;;;;;;;;;;6269133;28;20526;-63
2022/06/24 13:03:50;;;;;;;9.48;4.13;;;;;;;;;;6267079;28;20391;-63
2022/06/24 13:06:50;;;;;;;5.53;3.87;;;;;;;;;;6262280;28;20577;-63
2022/06/24 13:09:51;;;;;;;5.47;4.00;;;;;;;;;;6262671;28;20507;-63
2022/06/24 13:12:52;;;;;;;5.72;4.03;;;;;;;;;;6263334;28;20045;-63
2022/06/24 13:15:53;;;;;;;5.43;3.97;;;;;;;;;;6262633;28;20604;-63
2022/06/24 13:18:54;;;;;;;5.82;4.00;;;;;;;;;;6263823;28;20090;-63
2022/06/24 13:21:55;;;;;;;5.57;4.25;;;;;;;;;;6263202;28;20132;-63
2022/06/24 13:24:55;;;;;;;5.43;3.80;;;;;;;;;;6265359;28;20044;-63
2022/06/24 13:27:56;;;;;;;7.63;4.30;;;;;;;;;;6264484;28;20336;-63
2022/06/24 13:30:57;;;;;;;4.90;3.65;;;;;;;;;;6263112;28;20041;-63
2022/06/24 13:33:57;;;;;;;6.35;4.07;;;;;;;;;;6265730;28;20074;-64
2022/06/24 13:36:58;;;;;;;6.23;4.30;;;;;;;;;;6261695;28;20032;-63
2022/06/24 13:39:59;;;;;;;8.00;4.22;;;;;;;;;;6264808;28;20091;-63
2022/06/24 13:42:59;;;;;;;8.95;4.13;;;;;;;;;;6263168;28;20794;-63
2022/06/24 13:46:00;;;;;;;5.30;3.80;;;;;;;;;;6264355;28;20053;-64
2022/06/24 13:49:00;;;;;;;5.93;3.53;;;;;;;;;;6259580;28;20775;-63
2022/06/24 13:52:01;;;;;;;7.97;3.92;;;;;;;;;;6260863;28;20057;-62
2022/06/24 13:55:03;;;;;;;5.72;3.45;;;;;;;;;;6266699;28;20055;-63
2022/06/24 13:58:04;;;;;;;5.30;3.53;;;;;;;;;;6258196;28;20116;-63
2022/06/24 14:01:04;;;;;;;5.30;3.70;;;;;;;;;;6264775;28;20096;-62
2022/06/24 14:04:05;;;;;;;8.65;3.67;;;;;;;;;;6266862;28;20641;-63
2022/06/24 14:07:05;;;;;;;5.88;3.80;;;;;;;;;;6266610;28;20048;-63
2022/06/24 14:10:07;;;;;;;8.00;4.15;;;;;;;;;;6267932;28;20044;-64
2022/06/24 14:13:08;;;;;;;5.82;3.90;;;;;;;;;;6268905;28;20049;-62
2022/06/24 14:16:08;;;;;;;5.25;3.80;;;;;;;;;;6268104;28;20108;-63
2022/06/24 14:19:09;;;;;;;6.23;4.17;;;;;;;;;;6264474;28;20056;-64
2022/06/24 14:22:10;;;;;;;4.75;3.63;;;;;;;;;;6271817;28;20677;-63
2022/06/24 14:25:10;;;;;;;5.63;3.58;;;;;;;;;;6267610;28;20109;-62
2022/06/24 14:28:11;;;;;;;5.07;3.75;;;;;;;;;;6267330;28;20048;-62
2022/06/24 14:31:11;;;;;;;6.00;3.65;;;;;;;;;;6275024;28;20052;-61
2022/06/24 14:34:12;;;;;;;8.18;4.05;;;;;;;;;;6271810;28;20059;-62
2022/06/24 14:40:34;;;;;;;4.97;3.72;;;;;;;;;;6269477;28;20044;-63
2022/06/24 14:43:35;;;;;;;6.72;4.22;;;;;;;;;;6268480;28;20052;-61
2022/06/24 14:46:35;;;;;;;4.22;3.53;;;;;;;;;;6268415;28;20055;-63
2022/06/24 14:49:36;;;;;;;5.43;3.72;;;;;;;;;;6268885;28;20048;-62
2022/06/24 14:52:39;;;;;;;5.30;3.67;;;;;;;;;;6266860;28;20163;-63
2022/06/24 14:55:39;;;;;;;6.80;3.90;;;;;;;;;;6270113;28;20044;-63
2022/06/24 14:58:40;;;;;;;4.72;3.90;;;;;;;;;;6266658;28;20056;-62
2022/06/24 15:01:40;;;;;;;5.00;3.85;;;;;;;;;;6269813;28;20060;-62
2022/06/24 15:04:41;;;;;;;6.70;4.22;;;;;;;;;;6269135;28;20059;-62
2022/06/24 15:07:42;;;;;;;6.72;3.65;;;;;;;;;;6266547;28;20066;-61
2022/06/24 15:10:43;;;;;;;5.50;3.25;;;;;;;;;;6270089;28;20712;-62
2022/06/24 15:13:43;;;;;;;5.10;3.40;;;;;;;;;;6270021;28;20057;-64
2022/06/24 15:16:44;;;;;;;6.50;3.72;;;;;;;;;;6267194;28;20041;-62
2022/06/24 15:19:45;;;;;;;5.60;3.65;;;;;;;;;;6269196;28;20060;-64
2022/06/24 15:22:46;;;;;;;7.80;4.60;;;;;;;;;;6267630;28;20049;-62
2022/06/24 15:25:46;;;;;;;8.18;4.25;;;;;;;;;;6273263;28;20059;-61
2022/06/24 15:28:47;;;;;;;5.43;3.90;;;;;;;;;;6269690;28;20045;-63
2022/06/24 15:31:48;;;;;;;5.30;3.53;;;;;;;;;;6274883;28;20049;-63
2022/06/24 15:34:48;;;;;;;5.80;4.00;;;;;;;;;;6275008;28;21019;-63
2022/06/24 15:37:49;;;;;;;5.15;3.80;;;;;;;;;;6270004;28;20061;-60
2022/06/24 15:40:50;;;;;;;5.80;3.30;;;;;;;;;;6277432;28;20640;-63
2022/06/24 15:43:56;;;;;;;5.93;3.60;;;;;;;;;;6263984;28;20071;-60
2022/06/24 15:46:57;;;;;;;8.55;3.47;;;;;;;;;;6263257;28;20048;-62
2022/06/24 15:49:58;;;;;;;8.32;3.97;;;;;;;;;;6266744;28;20140;-63
2022/06/24 15:52:58;;;;;;;6.63;3.22;;;;;;;;;;6269848;28;20060;-60
2022/06/24 15:55:59;;;;;;;6.95;3.53;;;;;;;;;;6264791;28;20047;-63
2022/06/24 15:59:01;;;;;;;;;;;;;;;;;;6263628;28;20053;-62
2022/06/24 16:02:01;;;;;;;9.63;3.40;;;;;;;;;;6266453;28;20014;-63
2022/06/24 16:05:03;;;;;;;6.32;2.97;;;;;;;;;;6271488;28;20049;-64
2022/06/24 16:08:03;;;;;;;5.82;3.33;;;;;;;;;;6265625;28;20048;-61
2022/06/24 16:11:06;;;;;;;5.13;3.20;;;;;;;;;;6268293;28;20044;-61
2022/06/24 16:14:06;;;;;;;6.63;3.30;;;;;;;;;;6264885;28;20072;-63
2022/06/24 16:17:07;;;;;;;5.18;3.05;;;;;;;;;;6272608;28;20048;-61
2022/06/24 16:20:08;;;;;;;5.22;3.08;;;;;;;;;;6265993;28;20070;-62
2022/06/24 16:23:09;;;;;;;6.35;3.10;;;;;;;;;;6266597;28;20134;-65
2022/06/24 16:29:28;;;;;;;5.80;2.95;;;;;;;;;;6265883;28;20060;-63
2022/06/24 16:32:29;;;;;;;7.63;3.30;;;;;;;;;;6268369;28;20063;-62
2022/06/24 16:35:30;;;;;;;7.70;3.00;;;;;;;;;;6268338;28;20475;-63
2022/06/24 16:38:32;;;;;;;6.68;3.17;;;;;;;;;;6258715;28;20479;-63
2022/06/24 16:41:33;;;;;;;6.85;3.13;;;;;;;;;;6266011;28;20131;-63
2022/06/24 16:44:34;;;;;;;8.65;3.30;;;;;;;;;;6266166;28;20048;-63
2022/06/24 16:47:34;;;;;;;7.93;2.83;;;;;;;;;;6265638;28;20534;-63
2022/06/24 16:50:35;;;;;;;7.00;2.83;;;;;;;;;;6265019;28;20047;-64
2022/06/24 16:53:38;;;;;;;5.97;3.30;;;;;;;;;;6264708;28;20398;-64
2022/06/24 16:56:38;;;;;;;5.80;3.00;;;;;;;;;;6267515;28;20095;-63
2022/06/24 16:59:39;;;;;;;6.45;3.22;;;;;;;;;;6263916;28;20621;-63
2022/06/24 17:02:40;;;;;;;4.73;2.97;;;;;;;;;;6263707;28;20044;-63
2022/06/24 17:05:42;;;;;;;9.20;3.10;;;;;;;;;;6268197;28;20125;-64
2022/06/24 17:08:42;;;;;;;6.78;3.42;;;;;;;;;;6264191;28;20049;-63
2022/06/24 17:11:43;;;;;;;4.43;2.75;;;;;;;;;;6264463;28;20067;-62
2022/06/24 17:14:43;;;;;;;5.87;3.07;;;;;;;;;;6271352;28;20045;-63
2022/06/24 17:17:45;;;;;;;10.18;3.40;;;;;;;;;;6266748;28;20331;-63
2022/06/24 17:20:45;;;;;;;5.97;3.13;;;;;;;;;;6267156;28;20057;-64
2022/06/24 17:23:46;;;;;;;6.07;3.13;;;;;;;;;;6263758;28;20611;-62
2022/06/24 17:26:46;;;;;;;6.97;3.30;;;;;;;;;;6267643;28;20077;-63
2022/06/24 17:29:47;;;;;;;7.72;3.30;;;;;;;;;;6268273;28;20068;-63
2022/06/24 17:32:48;;;;;;;6.95;3.50;;;;;;;;;;6267918;28;20089;-62
2022/06/24 17:35:49;;;;;;;9.07;3.10;;;;;;;;;;6265280;28;20423;-63
2022/06/24 17:38:52;;;;;;;6.28;3.47;;;;;;;;;;6263970;28;20454;-62
2022/06/24 17:41:54;;;;;;;7.15;3.45;;;;;;;;;;6263230;28;20143;-63
2022/06/24 17:44:54;;;;;;;6.35;3.85;;;;;;;;;;6262572;28;20059;-64
2022/06/24 17:47:55;;;;;;;4.93;3.53;;;;;;;;;;6262423;28;20056;-61
2022/06/24 17:50:55;;;;;;;10.10;3.30;;;;;;;;;;6265898;28;20097;-62
2022/06/24 17:53:56;;;;;;;8.35;3.70;;;;;;;;;;6267298;28;20399;-62
2022/06/24 17:56:57;;;;;;;9.30;4.00;;;;;;;;;;6264713;28;20155;-62
2022/06/24 17:59:58;;;;;;;9.35;4.00;;;;;;;;;;6261410;28;20170;-65
2022/06/24 18:02:59;;;;;;;9.37;3.77;;;;;;;;;;6266776;28;20061;-62
2022/06/24 18:05:59;;;;;;;7.88;3.42;;;;;;;;;;6268158;28;20172;-62
2022/06/24 18:09:00;;;;;;;9.87;3.73;;;;;;;;;;6266254;28;20403;-64
2022/06/24 18:12:03;;;;;;;5.65;3.53;;;;;;;;;;6266233;28;20309;-64
2022/06/24 18:15:05;;;;;;;10.98;3.72;;;;;;;;;;6264177;28;20041;-63
2022/06/24 18:18:05;;;;;;;8.00;3.90;;;;;;;;;;6263678;28;20135;-63
2022/06/24 18:21:06;;;;;;;5.88;3.70;;;;;;;;;;6267131;28;20485;-63
2022/06/24 18:24:07;;;;;;;7.05;3.70;;;;;;;;;;6266245;28;20049;-63